sensor_id;sensor_type;location;lat;lon;timestamp;temperature;humidity
210;DHT22;90;48.810;9.120;2022-12-10T00:01:15;2.20;94.20
210;DHT22;90;48.810;9.120;2022-12-10T00:03:45;2.20;94.20
210;DHT22;90;48.810;9.120;2022-12-10T00:06:16;2.20;94.20
210;DHT22;90;48.810;9.120;2022-12-10T00:08:48;2.20;94.20
210;DHT22;90;48.810;9.120;2022-12-10T00:11:20;2.10;94.20
210;DHT22;90;48.810;9.120;2022-12-10T00:13:51;2.20;94.30
210;DHT22;90;48.810;9.120;2022-12-10T00:16:21;2.20;94.40
210;DHT22;90;48.810;9.120;2022-12-10T00:18:50;2.20;94.40
210;DHT22;90;48.810;9.120;2022-12-10T00:21:21;2.20;94.30
210;DHT22;90;48.810;9.120;2022-12-10T00:23:49;2.20;94.30
210;DHT22;90;48.810;9.120;2022-12-10T00:26:18;2.10;94.50
210;DHT22;90;48.810;9.120;2022-12-10T00:28:46;2.10;94.50
210;DHT22;90;48.810;9.120;2022-12-10T00:31:15;2.10;94.50
210;DHT22;90;48.810;9.120;2022-12-10T00:33:43;2.10;94.60
210;DHT22;90;48.810;9.120;2022-12-10T00:36:14;2.10;94.30
210;DHT22;90;48.810;9.120;2022-12-10T00:38:42;2.10;94.40
210;DHT22;90;48.810;9.120;2022-12-10T00:41:11;2.20;94.30
210;DHT22;90;48.810;9.120;2022-12-10T00:43:39;2.20;94.20
210;DHT22;90;48.810;9.120;2022-12-10T00:46:07;2.20;94.20
210;DHT22;90;48.810;9.120;2022-12-10T00:48:35;2.20;94.10
210;DHT22;90;48.810;9.120;2022-12-10T00:51:05;2.20;94.00
210;DHT22;90;48.810;9.120;2022-12-10T00:53:36;2.20;94.00
210;DHT22;90;48.810;9.120;2022-12-10T00:56:04;2.20;94.00
210;DHT22;90;48.810;9.120;2022-12-10T00:58:33;2.20;93.90
210;DHT22;90;48.810;9.120;2022-12-10T01:01:09;2.20;93.90
210;DHT22;90;48.810;9.120;2022-12-10T01:03:36;2.20;93.80
210;DHT22;90;48.810;9.120;2022-12-10T01:06:12;2.20;93.80
210;DHT22;90;48.810;9.120;2022-12-10T01:08:40;2.20;93.70
210;DHT22;90;48.810;9.120;2022-12-10T01:11:09;2.20;93.80
210;DHT22;90;48.810;9.120;2022-12-10T01:13:37;2.20;93.90
210;DHT22;90;48.810;9.120;2022-12-10T01:16:06;2.20;93.70
210;DHT22;90;48.810;9.120;2022-12-10T01:18:33;2.20;93.60
210;DHT22;90;48.810;9.120;2022-12-10T01:21:01;2.20;93.50
210;DHT22;90;48.810;9.120;2022-12-10T01:23:32;2.20;93.70
210;DHT22;90;48.810;9.120;2022-12-10T01:26:02;2.20;93.50
210;DHT22;90;48.810;9.120;2022-12-10T01:28:30;2.20;93.50
210;DHT22;90;48.810;9.120;2022-12-10T01:31:01;2.10;93.60
210;DHT22;90;48.810;9.120;2022-12-10T01:33:30;2.20;93.70
210;DHT22;90;48.810;9.120;2022-12-10T01:36:01;2.20;93.20
210;DHT22;90;48.810;9.120;2022-12-10T01:38:29;2.20;93.20
210;DHT22;90;48.810;9.120;2022-12-10T01:40:56;2.20;93.00
210;DHT22;90;48.810;9.120;2022-12-10T01:43:24;2.20;93.00
210;DHT22;90;48.810;9.120;2022-12-10T01:45:52;2.10;93.10
210;DHT22;90;48.810;9.120;2022-12-10T01:48:20;2.10;93.30
210;DHT22;90;48.810;9.120;2022-12-10T01:50:48;2.10;93.40
210;DHT22;90;48.810;9.120;2022-12-10T01:53:16;2.10;93.30
210;DHT22;90;48.810;9.120;2022-12-10T01:55:46;2.10;93.30
210;DHT22;90;48.810;9.120;2022-12-10T01:58:16;2.10;93.40
210;DHT22;90;48.810;9.120;2022-12-10T02:00:54;2.10;93.30
210;DHT22;90;48.810;9.120;2022-12-10T02:03:29;2.10;93.50
210;DHT22;90;48.810;9.120;2022-12-10T02:06:02;2.10;93.50
210;DHT22;90;48.810;9.120;2022-12-10T02:08:38;2.00;93.70
210;DHT22;90;48.810;9.120;2022-12-10T02:11:11;2.10;93.70
210;DHT22;90;48.810;9.120;2022-12-10T02:13:44;2.10;93.70
210;DHT22;90;48.810;9.120;2022-12-10T02:16:16;2.10;93.60
210;DHT22;90;48.810;9.120;2022-12-10T02:18:48;2.10;93.60
210;DHT22;90;48.810;9.120;2022-12-10T02:21:18;2.10;93.50
210;DHT22;90;48.810;9.120;2022-12-10T02:23:49;2.10;93.50
210;DHT22;90;48.810;9.120;2022-12-10T02:26:22;2.10;93.50
210;DHT22;90;48.810;9.120;2022-12-10T02:29:03;2.10;93.50
210;DHT22;90;48.810;9.120;2022-12-10T02:31:35;2.10;93.40
210;DHT22;90;48.810;9.120;2022-12-10T02:34:05;2.10;93.30
210;DHT22;90;48.810;9.120;2022-12-10T02:36:38;2.10;93.30
210;DHT22;90;48.810;9.120;2022-12-10T02:39:09;2.10;93.20
210;DHT22;90;48.810;9.120;2022-12-10T02:41:42;2.10;93.30
210;DHT22;90;48.810;9.120;2022-12-10T02:44:13;2.10;93.40
210;DHT22;90;48.810;9.120;2022-12-10T02:46:43;2.10;93.30
210;DHT22;90;48.810;9.120;2022-12-10T02:49:12;2.10;93.50
210;DHT22;90;48.810;9.120;2022-12-10T02:51:40;2.10;93.50
210;DHT22;90;48.810;9.120;2022-12-10T02:54:33;2.10;93.40
210;DHT22;90;48.810;9.120;2022-12-10T02:57:07;2.10;93.50
210;DHT22;90;48.810;9.120;2022-12-10T02:59:41;2.00;93.50
210;DHT22;90;48.810;9.120;2022-12-10T03:02:15;2.00;93.50
210;DHT22;90;48.810;9.120;2022-12-10T03:04:48;2.00;93.30
210;DHT22;90;48.810;9.120;2022-12-10T03:07:27;2.00;93.30
210;DHT22;90;48.810;9.120;2022-12-10T03:09:58;1.90;93.50
210;DHT22;90;48.810;9.120;2022-12-10T03:12:29;1.90;93.60
210;DHT22;90;48.810;9.120;2022-12-10T03:15:01;1.90;93.90
210;DHT22;90;48.810;9.120;2022-12-10T03:17:30;1.90;93.70
210;DHT22;90;48.810;9.120;2022-12-10T03:19:59;1.90;93.70
210;DHT22;90;48.810;9.120;2022-12-10T03:22:28;1.90;93.80
210;DHT22;90;48.810;9.120;2022-12-10T03:24:56;1.90;93.80
210;DHT22;90;48.810;9.120;2022-12-10T03:27:24;1.90;94.00
210;DHT22;90;48.810;9.120;2022-12-10T03:29:54;1.80;94.10
210;DHT22;90;48.810;9.120;2022-12-10T03:32:26;1.90;94.10
210;DHT22;90;48.810;9.120;2022-12-10T03:34:56;1.80;94.10
210;DHT22;90;48.810;9.120;2022-12-10T03:37:26;1.70;95.00
210;DHT22;90;48.810;9.120;2022-12-10T03:39:54;1.70;95.30
210;DHT22;90;48.810;9.120;2022-12-10T03:42:21;1.70;95.30
210;DHT22;90;48.810;9.120;2022-12-10T03:44:50;1.80;95.00
210;DHT22;90;48.810;9.120;2022-12-10T03:47:18;1.90;94.90
210;DHT22;90;48.810;9.120;2022-12-10T03:49:47;1.90;94.70
210;DHT22;90;48.810;9.120;2022-12-10T03:52:14;1.90;94.50
210;DHT22;90;48.810;9.120;2022-12-10T03:54:41;1.80;94.40
210;DHT22;90;48.810;9.120;2022-12-10T03:57:08;1.80;94.40
210;DHT22;90;48.810;9.120;2022-12-10T03:59:35;1.80;94.40
210;DHT22;90;48.810;9.120;2022-12-10T04:02:03;1.80;94.40
210;DHT22;90;48.810;9.120;2022-12-10T04:04:30;1.90;94.40
210;DHT22;90;48.810;9.120;2022-12-10T04:06:58;1.80;94.20
210;DHT22;90;48.810;9.120;2022-12-10T04:09:26;1.80;94.40
210;DHT22;90;48.810;9.120;2022-12-10T04:11:55;1.70;94.30
210;DHT22;90;48.810;9.120;2022-12-10T04:14:23;1.80;94.60
210;DHT22;90;48.810;9.120;2022-12-10T04:17:07;1.80;94.40
210;DHT22;90;48.810;9.120;2022-12-10T04:19:34;1.70;94.30
210;DHT22;90;48.810;9.120;2022-12-10T04:22:03;1.70;94.40
210;DHT22;90;48.810;9.120;2022-12-10T04:24:47;1.70;94.70
210;DHT22;90;48.810;9.120;2022-12-10T04:27:39;1.70;94.60
210;DHT22;90;48.810;9.120;2022-12-10T04:30:09;1.70;94.50
210;DHT22;90;48.810;9.120;2022-12-10T04:32:36;1.80;94.30
210;DHT22;90;48.810;9.120;2022-12-10T04:35:04;1.70;94.00
210;DHT22;90;48.810;9.120;2022-12-10T04:37:33;1.70;94.50
210;DHT22;90;48.810;9.120;2022-12-10T04:40:00;1.70;94.50
210;DHT22;90;48.810;9.120;2022-12-10T04:42:28;1.70;94.50
210;DHT22;90;48.810;9.120;2022-12-10T04:44:55;1.60;94.60
210;DHT22;90;48.810;9.120;2022-12-10T04:47:22;1.60;94.90
210;DHT22;90;48.810;9.120;2022-12-10T04:49:49;1.70;94.80
210;DHT22;90;48.810;9.120;2022-12-10T04:52:16;1.70;94.50
210;DHT22;90;48.810;9.120;2022-12-10T04:54:45;1.60;94.10
210;DHT22;90;48.810;9.120;2022-12-10T04:57:12;1.50;94.60
210;DHT22;90;48.810;9.120;2022-12-10T04:59:39;1.60;94.70
210;DHT22;90;48.810;9.120;2022-12-10T05:02:06;1.60;94.60
210;DHT22;90;48.810;9.120;2022-12-10T05:04:34;1.60;94.70
210;DHT22;90;48.810;9.120;2022-12-10T05:07:01;1.60;94.70
210;DHT22;90;48.810;9.120;2022-12-10T05:09:28;1.60;94.90
210;DHT22;90;48.810;9.120;2022-12-10T05:11:56;1.60;94.90
210;DHT22;90;48.810;9.120;2022-12-10T05:14:23;1.60;94.70
210;DHT22;90;48.810;9.120;2022-12-10T05:16:51;1.60;94.60
210;DHT22;90;48.810;9.120;2022-12-10T05:19:18;1.60;94.60
210;DHT22;90;48.810;9.120;2022-12-10T05:21:47;1.60;94.70
210;DHT22;90;48.810;9.120;2022-12-10T05:24:32;1.60;94.70
210;DHT22;90;48.810;9.120;2022-12-10T05:27:01;1.60;94.50
210;DHT22;90;48.810;9.120;2022-12-10T05:29:28;1.60;94.60
210;DHT22;90;48.810;9.120;2022-12-10T05:31:55;1.60;94.50
210;DHT22;90;48.810;9.120;2022-12-10T05:34:23;1.60;94.50
210;DHT22;90;48.810;9.120;2022-12-10T05:36:50;1.60;93.80
210;DHT22;90;48.810;9.120;2022-12-10T05:39:17;1.60;94.00
210;DHT22;90;48.810;9.120;2022-12-10T05:41:43;1.60;94.00
210;DHT22;90;48.810;9.120;2022-12-10T05:44:12;1.60;94.00
210;DHT22;90;48.810;9.120;2022-12-10T05:46:39;1.60;94.10
210;DHT22;90;48.810;9.120;2022-12-10T05:49:07;1.60;94.20
210;DHT22;90;48.810;9.120;2022-12-10T05:51:35;1.60;93.90
210;DHT22;90;48.810;9.120;2022-12-10T05:54:04;1.70;93.90
210;DHT22;90;48.810;9.120;2022-12-10T05:56:31;1.60;93.90
210;DHT22;90;48.810;9.120;2022-12-10T05:58:59;1.50;94.20
210;DHT22;90;48.810;9.120;2022-12-10T06:01:31;1.50;94.20
210;DHT22;90;48.810;9.120;2022-12-10T06:03:58;1.50;94.10
210;DHT22;90;48.810;9.120;2022-12-10T06:06:28;1.50;94.30
210;DHT22;90;48.810;9.120;2022-12-10T06:08:56;1.50;94.30
210;DHT22;90;48.810;9.120;2022-12-10T06:11:25;1.50;94.60
210;DHT22;90;48.810;9.120;2022-12-10T06:13:53;1.50;94.40
210;DHT22;90;48.810;9.120;2022-12-10T06:16:21;1.50;93.90
210;DHT22;90;48.810;9.120;2022-12-10T06:18:49;1.50;93.90
210;DHT22;90;48.810;9.120;2022-12-10T06:21:17;1.50;94.10
210;DHT22;90;48.810;9.120;2022-12-10T06:23:45;1.60;94.10
210;DHT22;90;48.810;9.120;2022-12-10T06:26:14;1.50;93.80
210;DHT22;90;48.810;9.120;2022-12-10T06:28:43;1.60;93.80
210;DHT22;90;48.810;9.120;2022-12-10T06:31:11;1.50;93.80
210;DHT22;90;48.810;9.120;2022-12-10T06:33:38;1.50;93.90
210;DHT22;90;48.810;9.120;2022-12-10T06:36:08;1.50;93.90
210;DHT22;90;48.810;9.120;2022-12-10T06:38:37;1.60;93.90
210;DHT22;90;48.810;9.120;2022-12-10T06:41:05;1.60;93.80
210;DHT22;90;48.810;9.120;2022-12-10T06:43:33;1.50;93.80
210;DHT22;90;48.810;9.120;2022-12-10T06:46:04;1.60;93.90
210;DHT22;90;48.810;9.120;2022-12-10T06:48:32;1.60;93.80
210;DHT22;90;48.810;9.120;2022-12-10T06:51:00;1.60;93.70
210;DHT22;90;48.810;9.120;2022-12-10T06:53:29;1.60;93.50
210;DHT22;90;48.810;9.120;2022-12-10T06:55:58;1.60;93.50
210;DHT22;90;48.810;9.120;2022-12-10T06:58:27;1.70;93.30
210;DHT22;90;48.810;9.120;2022-12-10T07:00:54;1.70;93.30
210;DHT22;90;48.810;9.120;2022-12-10T07:03:21;1.60;93.10
210;DHT22;90;48.810;9.120;2022-12-10T07:05:48;1.60;93.30
210;DHT22;90;48.810;9.120;2022-12-10T07:08:15;1.60;93.40
210;DHT22;90;48.810;9.120;2022-12-10T07:10:44;1.60;93.30
210;DHT22;90;48.810;9.120;2022-12-10T07:13:11;1.60;93.50
210;DHT22;90;48.810;9.120;2022-12-10T07:15:39;1.60;93.00
210;DHT22;90;48.810;9.120;2022-12-10T07:18:06;1.50;93.20
210;DHT22;90;48.810;9.120;2022-12-10T07:20:33;1.50;93.50
210;DHT22;90;48.810;9.120;2022-12-10T07:23:01;1.50;93.80
210;DHT22;90;48.810;9.120;2022-12-10T07:25:27;1.40;93.90
210;DHT22;90;48.810;9.120;2022-12-10T07:27:57;1.40;94.20
210;DHT22;90;48.810;9.120;2022-12-10T07:30:23;1.40;94.30
210;DHT22;90;48.810;9.120;2022-12-10T07:32:51;1.50;94.20
210;DHT22;90;48.810;9.120;2022-12-10T07:35:18;1.50;94.20
210;DHT22;90;48.810;9.120;2022-12-10T07:37:45;1.50;93.80
210;DHT22;90;48.810;9.120;2022-12-10T07:40:12;1.50;94.00
210;DHT22;90;48.810;9.120;2022-12-10T07:42:39;1.50;93.80
210;DHT22;90;48.810;9.120;2022-12-10T07:45:10;1.50;93.60
210;DHT22;90;48.810;9.120;2022-12-10T07:47:37;1.60;94.10
210;DHT22;90;48.810;9.120;2022-12-10T07:50:06;1.60;92.90
210;DHT22;90;48.810;9.120;2022-12-10T07:52:33;1.60;93.00
210;DHT22;90;48.810;9.120;2022-12-10T07:55:00;1.60;93.10
210;DHT22;90;48.810;9.120;2022-12-10T07:57:28;1.50;93.50
210;DHT22;90;48.810;9.120;2022-12-10T07:59:55;2.00;96.80
210;DHT22;90;48.810;9.120;2022-12-10T08:02:25;2.10;96.80
210;DHT22;90;48.810;9.120;2022-12-10T08:04:52;2.40;96.80
210;DHT22;90;48.810;9.120;2022-12-10T08:07:20;2.30;96.50
210;DHT22;90;48.810;9.120;2022-12-10T08:09:47;2.20;93.30
210;DHT22;90;48.810;9.120;2022-12-10T08:12:14;2.00;92.20
210;DHT22;90;48.810;9.120;2022-12-10T08:14:41;1.90;92.60
210;DHT22;90;48.810;9.120;2022-12-10T08:17:08;1.90;92.50
210;DHT22;90;48.810;9.120;2022-12-10T08:19:36;1.80;92.30
210;DHT22;90;48.810;9.120;2022-12-10T08:22:03;1.80;92.30
210;DHT22;90;48.810;9.120;2022-12-10T08:24:30;1.70;92.90
210;DHT22;90;48.810;9.120;2022-12-10T08:26:57;1.70;93.20
210;DHT22;90;48.810;9.120;2022-12-10T08:29:26;1.70;93.00
210;DHT22;90;48.810;9.120;2022-12-10T08:31:53;1.70;92.70
210;DHT22;90;48.810;9.120;2022-12-10T08:34:19;1.70;92.50
210;DHT22;90;48.810;9.120;2022-12-10T08:36:48;1.70;92.60
210;DHT22;90;48.810;9.120;2022-12-10T08:39:15;1.70;92.50
210;DHT22;90;48.810;9.120;2022-12-10T08:41:43;1.70;92.20
210;DHT22;90;48.810;9.120;2022-12-10T08:44:10;1.70;92.40
210;DHT22;90;48.810;9.120;2022-12-10T08:46:38;1.60;92.60
210;DHT22;90;48.810;9.120;2022-12-10T08:49:06;1.70;92.90
210;DHT22;90;48.810;9.120;2022-12-10T08:51:33;1.70;92.80
210;DHT22;90;48.810;9.120;2022-12-10T08:54:01;1.60;92.80
210;DHT22;90;48.810;9.120;2022-12-10T08:56:28;1.60;93.20
210;DHT22;90;48.810;9.120;2022-12-10T08:58:55;1.70;93.00
210;DHT22;90;48.810;9.120;2022-12-10T09:01:22;1.70;92.50
210;DHT22;90;48.810;9.120;2022-12-10T09:03:50;1.70;92.80
210;DHT22;90;48.810;9.120;2022-12-10T09:06:18;1.70;92.40
210;DHT22;90;48.810;9.120;2022-12-10T09:08:46;1.70;92.40
210;DHT22;90;48.810;9.120;2022-12-10T09:11:17;1.70;92.50
210;DHT22;90;48.810;9.120;2022-12-10T09:13:45;1.70;92.50
210;DHT22;90;48.810;9.120;2022-12-10T09:16:12;1.80;92.30
210;DHT22;90;48.810;9.120;2022-12-10T09:18:39;1.80;92.30
210;DHT22;90;48.810;9.120;2022-12-10T09:21:07;1.90;92.00
210;DHT22;90;48.810;9.120;2022-12-10T09:23:35;1.90;91.40
210;DHT22;90;48.810;9.120;2022-12-10T09:26:05;1.80;91.50
210;DHT22;90;48.810;9.120;2022-12-10T09:28:34;1.90;91.70
210;DHT22;90;48.810;9.120;2022-12-10T09:31:03;1.90;91.60
210;DHT22;90;48.810;9.120;2022-12-10T09:33:31;2.00;91.10
210;DHT22;90;48.810;9.120;2022-12-10T09:35:58;1.90;90.50
210;DHT22;90;48.810;9.120;2022-12-10T09:38:25;2.00;91.00
210;DHT22;90;48.810;9.120;2022-12-10T09:40:59;2.00;90.50
210;DHT22;90;48.810;9.120;2022-12-10T09:43:40;2.00;90.40
210;DHT22;90;48.810;9.120;2022-12-10T09:46:17;1.90;90.40
210;DHT22;90;48.810;9.120;2022-12-10T09:48:54;1.90;90.50
210;DHT22;90;48.810;9.120;2022-12-10T09:51:28;1.90;90.30
210;DHT22;90;48.810;9.120;2022-12-10T09:53:57;2.00;90.60
210;DHT22;90;48.810;9.120;2022-12-10T09:56:28;1.90;90.40
210;DHT22;90;48.810;9.120;2022-12-10T09:59:00;1.90;90.50
210;DHT22;90;48.810;9.120;2022-12-10T10:01:31;1.90;90.60
210;DHT22;90;48.810;9.120;2022-12-10T10:03:59;3.30;96.80
210;DHT22;90;48.810;9.120;2022-12-10T10:06:28;3.10;94.10
210;DHT22;90;48.810;9.120;2022-12-10T10:08:59;3.10;94.50
210;DHT22;90;48.810;9.120;2022-12-10T10:11:31;2.90;92.70
210;DHT22;90;48.810;9.120;2022-12-10T10:14:04;2.60;89.60
210;DHT22;90;48.810;9.120;2022-12-10T10:16:34;2.40;89.40
210;DHT22;90;48.810;9.120;2022-12-10T10:19:04;2.40;89.30
210;DHT22;90;48.810;9.120;2022-12-10T10:21:35;2.20;89.40
210;DHT22;90;48.810;9.120;2022-12-10T10:24:04;2.10;89.70
210;DHT22;90;48.810;9.120;2022-12-10T10:26:32;2.20;89.90
210;DHT22;90;48.810;9.120;2022-12-10T10:29:02;2.20;89.60
210;DHT22;90;48.810;9.120;2022-12-10T10:31:32;2.30;89.10
210;DHT22;90;48.810;9.120;2022-12-10T10:34:03;2.30;89.10
210;DHT22;90;48.810;9.120;2022-12-10T10:36:32;2.20;89.00
210;DHT22;90;48.810;9.120;2022-12-10T10:39:08;2.20;89.40
210;DHT22;90;48.810;9.120;2022-12-10T10:41:38;2.10;89.40
210;DHT22;90;48.810;9.120;2022-12-10T10:44:15;2.10;89.50
210;DHT22;90;48.810;9.120;2022-12-10T10:46:44;2.20;89.20
210;DHT22;90;48.810;9.120;2022-12-10T10:49:19;2.10;89.20
210;DHT22;90;48.810;9.120;2022-12-10T10:51:48;2.20;89.10
210;DHT22;90;48.810;9.120;2022-12-10T10:54:32;2.20;89.20
210;DHT22;90;48.810;9.120;2022-12-10T10:57:03;2.20;88.90
210;DHT22;90;48.810;9.120;2022-12-10T10:59:35;2.20;88.20
210;DHT22;90;48.810;9.120;2022-12-10T11:02:14;2.10;88.80
210;DHT22;90;48.810;9.120;2022-12-10T11:04:46;2.10;89.00
210;DHT22;90;48.810;9.120;2022-12-10T11:07:20;2.10;88.80
210;DHT22;90;48.810;9.120;2022-12-10T11:09:48;2.10;89.20
210;DHT22;90;48.810;9.120;2022-12-10T11:12:36;2.10;88.80
210;DHT22;90;48.810;9.120;2022-12-10T11:15:29;2.20;88.80
210;DHT22;90;48.810;9.120;2022-12-10T11:17:57;2.60;91.10
210;DHT22;90;48.810;9.120;2022-12-10T11:20:26;2.50;88.70
210;DHT22;90;48.810;9.120;2022-12-10T11:22:55;3.90;96.80
210;DHT22;90;48.810;9.120;2022-12-10T11:25:31;4.30;96.80
210;DHT22;90;48.810;9.120;2022-12-10T11:28:04;4.00;95.60
210;DHT22;90;48.810;9.120;2022-12-10T11:30:41;3.80;93.80
210;DHT22;90;48.810;9.120;2022-12-10T11:33:19;3.90;94.20
210;DHT22;90;48.810;9.120;2022-12-10T11:35:54;4.90;96.80
210;DHT22;90;48.810;9.120;2022-12-10T11:38:27;4.60;95.00
210;DHT22;90;48.810;9.120;2022-12-10T11:41:02;4.40;90.50
210;DHT22;90;48.810;9.120;2022-12-10T11:43:45;4.10;88.30
210;DHT22;90;48.810;9.120;2022-12-10T11:46:42;3.40;84.50
210;DHT22;90;48.810;9.120;2022-12-10T11:49:21;3.40;84.60
210;DHT22;90;48.810;9.120;2022-12-10T11:51:54;3.10;84.90
210;DHT22;90;48.810;9.120;2022-12-10T11:54:47;3.00;85.50
210;DHT22;90;48.810;9.120;2022-12-10T11:57:25;3.00;86.00
210;DHT22;90;48.810;9.120;2022-12-10T12:00:00;3.00;86.00
210;DHT22;90;48.810;9.120;2022-12-10T12:05:50;2.90;88.90
210;DHT22;90;48.810;9.120;2022-12-10T12:08:24;2.90;87.30
210;DHT22;90;48.810;9.120;2022-12-10T12:11:05;2.80;86.70
210;DHT22;90;48.810;9.120;2022-12-10T12:13:40;2.80;86.70
210;DHT22;90;48.810;9.120;2022-12-10T12:16:13;2.80;86.40
210;DHT22;90;48.810;9.120;2022-12-10T12:18:47;2.80;86.40
210;DHT22;90;48.810;9.120;2022-12-10T12:21:16;2.80;85.90
210;DHT22;90;48.810;9.120;2022-12-10T12:23:49;2.70;86.10
210;DHT22;90;48.810;9.120;2022-12-10T12:26:21;2.70;86.30
210;DHT22;90;48.810;9.120;2022-12-10T12:28:53;2.70;86.30
210;DHT22;90;48.810;9.120;2022-12-10T12:31:34;2.70;86.70
210;DHT22;90;48.810;9.120;2022-12-10T12:34:05;2.70;86.50
210;DHT22;90;48.810;9.120;2022-12-10T12:36:35;3.70;96.80
210;DHT22;90;48.810;9.120;2022-12-10T12:39:13;3.70;96.80
210;DHT22;90;48.810;9.120;2022-12-10T12:41:45;3.60;92.00
210;DHT22;90;48.810;9.120;2022-12-10T12:44:21;3.30;87.60
210;DHT22;90;48.810;9.120;2022-12-10T12:46:56;3.20;86.30
210;DHT22;90;48.810;9.120;2022-12-10T12:49:27;3.00;86.20
210;DHT22;90;48.810;9.120;2022-12-10T12:52:00;2.90;86.50
210;DHT22;90;48.810;9.120;2022-12-10T12:54:29;2.90;86.80
210;DHT22;90;48.810;9.120;2022-12-10T12:57:01;2.90;86.40
210;DHT22;90;48.810;9.120;2022-12-10T12:59:50;2.80;87.30
210;DHT22;90;48.810;9.120;2022-12-10T13:02:44;2.80;87.30
210;DHT22;90;48.810;9.120;2022-12-10T13:05:14;2.60;87.70
210;DHT22;90;48.810;9.120;2022-12-10T13:07:43;2.50;87.90
210;DHT22;90;48.810;9.120;2022-12-10T13:10:23;2.40;88.70
210;DHT22;90;48.810;9.120;2022-12-10T13:13:06;2.40;89.10
210;DHT22;90;48.810;9.120;2022-12-10T13:15:36;2.30;89.30
210;DHT22;90;48.810;9.120;2022-12-10T13:21:26;2.40;89.00
210;DHT22;90;48.810;9.120;2022-12-10T13:24:06;2.30;89.10
210;DHT22;90;48.810;9.120;2022-12-10T13:26:34;2.30;89.10
210;DHT22;90;48.810;9.120;2022-12-10T13:29:19;2.30;89.00
210;DHT22;90;48.810;9.120;2022-12-10T13:31:56;2.30;89.20
210;DHT22;90;48.810;9.120;2022-12-10T13:34:32;2.30;89.10
210;DHT22;90;48.810;9.120;2022-12-10T13:37:06;2.30;88.90
210;DHT22;90;48.810;9.120;2022-12-10T13:39:47;2.30;88.60
210;DHT22;90;48.810;9.120;2022-12-10T13:42:36;2.20;88.90
210;DHT22;90;48.810;9.120;2022-12-10T13:45:32;2.20;89.10
210;DHT22;90;48.810;9.120;2022-12-10T13:48:33;2.20;89.30
210;DHT22;90;48.810;9.120;2022-12-10T13:51:26;2.10;89.40
210;DHT22;90;48.810;9.120;2022-12-10T13:56:49;2.10;89.30
210;DHT22;90;48.810;9.120;2022-12-10T13:59:29;2.00;89.60
210;DHT22;90;48.810;9.120;2022-12-10T14:08:03;1.90;89.90
210;DHT22;90;48.810;9.120;2022-12-10T14:10:33;1.90;89.30
210;DHT22;90;48.810;9.120;2022-12-10T14:13:04;1.90;89.50
210;DHT22;90;48.810;9.120;2022-12-10T14:15:35;1.90;89.10
210;DHT22;90;48.810;9.120;2022-12-10T14:18:09;1.70;89.30
210;DHT22;90;48.810;9.120;2022-12-10T14:20:41;1.80;89.30
210;DHT22;90;48.810;9.120;2022-12-10T14:23:22;1.70;89.50
210;DHT22;90;48.810;9.120;2022-12-10T14:26:10;1.80;88.90
210;DHT22;90;48.810;9.120;2022-12-10T14:28:41;1.80;88.60
210;DHT22;90;48.810;9.120;2022-12-10T14:31:17;1.70;89.10
210;DHT22;90;48.810;9.120;2022-12-10T14:33:46;1.70;89.00
210;DHT22;90;48.810;9.120;2022-12-10T14:36:18;1.70;89.60
210;DHT22;90;48.810;9.120;2022-12-10T14:38:47;1.70;89.60
210;DHT22;90;48.810;9.120;2022-12-10T14:41:18;1.70;89.10
210;DHT22;90;48.810;9.120;2022-12-10T14:43:48;1.70;89.20
210;DHT22;90;48.810;9.120;2022-12-10T14:46:19;1.70;89.40
210;DHT22;90;48.810;9.120;2022-12-10T14:48:49;1.70;89.50
210;DHT22;90;48.810;9.120;2022-12-10T14:51:20;1.70;89.10
210;DHT22;90;48.810;9.120;2022-12-10T14:53:48;1.70;89.40
210;DHT22;90;48.810;9.120;2022-12-10T14:56:21;1.60;89.50
210;DHT22;90;48.810;9.120;2022-12-10T14:58:55;1.60;89.50
210;DHT22;90;48.810;9.120;2022-12-10T15:01:28;1.60;89.80
210;DHT22;90;48.810;9.120;2022-12-10T15:03:59;1.50;89.70
210;DHT22;90;48.810;9.120;2022-12-10T15:06:27;1.50;90.10
210;DHT22;90;48.810;9.120;2022-12-10T15:08:58;1.50;90.30
210;DHT22;90;48.810;9.120;2022-12-10T15:11:27;1.50;90.20
210;DHT22;90;48.810;9.120;2022-12-10T15:13:58;1.50;90.00
210;DHT22;90;48.810;9.120;2022-12-10T15:16:37;1.50;89.80
210;DHT22;90;48.810;9.120;2022-12-10T15:19:13;1.50;90.00
210;DHT22;90;48.810;9.120;2022-12-10T15:21:44;1.50;89.80
210;DHT22;90;48.810;9.120;2022-12-10T15:24:18;1.50;90.00
210;DHT22;90;48.810;9.120;2022-12-10T15:26:46;1.60;90.90
210;DHT22;90;48.810;9.120;2022-12-10T15:29:30;1.60;90.90
210;DHT22;90;48.810;9.120;2022-12-10T15:32:00;1.60;90.20
210;DHT22;90;48.810;9.120;2022-12-10T15:34:29;1.60;89.90
210;DHT22;90;48.810;9.120;2022-12-10T15:37:01;1.60;89.60
210;DHT22;90;48.810;9.120;2022-12-10T15:39:31;1.60;90.40
210;DHT22;90;48.810;9.120;2022-12-10T15:42:01;1.50;89.30
210;DHT22;90;48.810;9.120;2022-12-10T15:44:37;1.50;89.60
210;DHT22;90;48.810;9.120;2022-12-10T15:47:12;1.50;89.30
210;DHT22;90;48.810;9.120;2022-12-10T15:49:41;1.70;94.40
210;DHT22;90;48.810;9.120;2022-12-10T15:52:12;1.90;95.80
210;DHT22;90;48.810;9.120;2022-12-10T15:54:41;1.80;90.30
210;DHT22;90;48.810;9.120;2022-12-10T15:57:12;1.70;88.60
210;DHT22;90;48.810;9.120;2022-12-10T15:59:42;1.60;87.30
210;DHT22;90;48.810;9.120;2022-12-10T16:02:25;1.90;94.30
210;DHT22;90;48.810;9.120;2022-12-10T16:04:52;1.90;92.00
210;DHT22;90;48.810;9.120;2022-12-10T16:07:20;1.70;88.10
210;DHT22;90;48.810;9.120;2022-12-10T16:09:47;1.70;88.80
210;DHT22;90;48.810;9.120;2022-12-10T16:12:15;1.70;87.00
210;DHT22;90;48.810;9.120;2022-12-10T16:14:48;1.60;87.20
210;DHT22;90;48.810;9.120;2022-12-10T16:17:16;1.60;86.70
210;DHT22;90;48.810;9.120;2022-12-10T16:19:43;1.60;86.10
210;DHT22;90;48.810;9.120;2022-12-10T16:22:10;1.60;85.80
210;DHT22;90;48.810;9.120;2022-12-10T16:24:37;1.60;85.50
210;DHT22;90;48.810;9.120;2022-12-10T16:27:10;1.50;85.80
210;DHT22;90;48.810;9.120;2022-12-10T16:29:38;1.50;85.80
210;DHT22;90;48.810;9.120;2022-12-10T16:32:09;1.50;86.20
210;DHT22;90;48.810;9.120;2022-12-10T16:34:36;1.50;86.10
210;DHT22;90;48.810;9.120;2022-12-10T16:37:04;1.50;86.50
210;DHT22;90;48.810;9.120;2022-12-10T16:39:31;1.60;86.30
210;DHT22;90;48.810;9.120;2022-12-10T16:41:59;1.50;86.30
210;DHT22;90;48.810;9.120;2022-12-10T16:44:26;1.50;86.50
210;DHT22;90;48.810;9.120;2022-12-10T16:46:53;1.50;86.80
210;DHT22;90;48.810;9.120;2022-12-10T16:49:21;1.40;87.10
210;DHT22;90;48.810;9.120;2022-12-10T16:51:49;1.40;87.50
210;DHT22;90;48.810;9.120;2022-12-10T16:54:16;1.30;87.50
210;DHT22;90;48.810;9.120;2022-12-10T16:56:43;1.40;87.70
210;DHT22;90;48.810;9.120;2022-12-10T16:59:11;1.40;87.40
210;DHT22;90;48.810;9.120;2022-12-10T17:01:38;1.30;87.30
210;DHT22;90;48.810;9.120;2022-12-10T17:04:05;1.40;87.60
210;DHT22;90;48.810;9.120;2022-12-10T17:06:33;1.40;87.30
210;DHT22;90;48.810;9.120;2022-12-10T17:09:01;1.40;87.30
210;DHT22;90;48.810;9.120;2022-12-10T17:11:38;1.40;87.80
210;DHT22;90;48.810;9.120;2022-12-10T17:14:18;1.40;87.70
210;DHT22;90;48.810;9.120;2022-12-10T17:16:46;1.40;87.90
210;DHT22;90;48.810;9.120;2022-12-10T17:19:13;1.40;87.90
210;DHT22;90;48.810;9.120;2022-12-10T17:21:42;1.40;87.20
210;DHT22;90;48.810;9.120;2022-12-10T17:24:09;1.40;87.30
210;DHT22;90;48.810;9.120;2022-12-10T17:26:39;1.30;87.80
210;DHT22;90;48.810;9.120;2022-12-10T17:29:13;1.40;87.90
210;DHT22;90;48.810;9.120;2022-12-10T17:31:40;1.50;87.70
210;DHT22;90;48.810;9.120;2022-12-10T17:34:09;1.40;87.70
210;DHT22;90;48.810;9.120;2022-12-10T17:36:36;1.50;87.70
210;DHT22;90;48.810;9.120;2022-12-10T17:39:05;1.40;87.60
210;DHT22;90;48.810;9.120;2022-12-10T17:41:32;1.40;88.00
210;DHT22;90;48.810;9.120;2022-12-10T17:43:59;1.30;88.30
210;DHT22;90;48.810;9.120;2022-12-10T17:46:26;1.30;88.30
210;DHT22;90;48.810;9.120;2022-12-10T17:48:53;1.30;88.30